Georgetown, Delaware
Current Conditions -  °F | °C
As of 6:54 AM on Friday 24 Oct 2014 (Local Time) from KGED Reporting Station
Broken Clouds Broken Clouds  
Wind Chill: 54°   Ceiling: 3700
Heat Index: 54°   Visibility: 10mi
Dew Point: 43°   Wind: 5mph
Humidity: 66%   Direction: 250°WSW
Pressure: 29.89"   Gusts: NA
Location:  38.69°N, 75.39°W
Report Text: KGED 241054Z AUTO 25004KT 10SM BKN037 12/06 A2989 RMK AO2 SLP121 T01220061
Loading
Personal Weather Stations






























Interactive Weather Map New forecast layout! Learn more

10-Day Weather Forecast

Advertisements
Track Severe Weather on mobile